Time;durP1;ratioP1;P1;durP2;ratioP2;P2;SDS_P1;SDS_P2;PMS_P1;PMS_P2;Temp;Humidity;BMP_temperature;BMP_pressure;BME280_temperature;BME280_humidity;BME280_pressure;Samples;Min_cycle;Max_cycle;Signal;HPM_P1;HPM_P2
2022/07/17 00:02:04;;;;;;;1.60;0.88;;;20.90;99.90;;;;;;4146555;28;20571;-79
2022/07/17 00:04:24;;;;;;;2.72;0.85;;;20.90;99.90;;;;;;4146791;28;20105;-79
2022/07/17 00:06:45;;;;;;;1.40;1.10;;;20.90;99.90;;;;;;4146430;28;20060;-79
2022/07/17 00:09:06;;;;;;;1.55;0.88;;;20.80;99.90;;;;;;4150896;28;20059;-79
2022/07/17 00:11:27;;;;;;;2.92;0.80;;;20.80;99.90;;;;;;4146795;28;20060;-78
2022/07/17 00:13:48;;;;;;;1.42;0.88;;;20.90;99.90;;;;;;4145297;28;20057;-78
2022/07/17 00:16:09;;;;;;;0.80;0.80;;;20.60;99.90;;;;;;4141598;28;20480;-78
2022/07/17 00:18:30;;;;;;;2.58;0.90;;;20.50;99.90;;;;;;4160958;28;20168;-78
2022/07/17 00:20:51;;;;;;;0.90;0.90;;;20.70;99.90;;;;;;4161206;28;20083;-79
2022/07/17 00:23:11;;;;;;;4.07;0.90;;;20.80;99.90;;;;;;4144640;28;20057;-78
2022/07/17 00:25:32;;;;;;;1.70;0.93;;;20.60;99.90;;;;;;4154670;28;20095;-78
2022/07/17 00:27:52;;;;;;;0.80;0.80;;;20.20;99.90;;;;;;4146509;28;20065;-78
2022/07/17 00:30:14;;;;;;;5.07;0.85;;;20.20;99.90;;;;;;4161566;28;20048;-78
2022/07/17 00:32:35;;;;;;;2.92;0.80;;;20.50;99.90;;;;;;4145828;28;20105;-78
2022/07/17 00:34:55;;;;;;;1.27;1.17;;;20.70;99.90;;;;;;4161181;28;20096;-78
2022/07/17 00:37:17;;;;;;;0.80;0.80;;;20.80;99.90;;;;;;4146059;28;20072;-78
2022/07/17 00:39:37;;;;;;;1.45;0.80;;;20.80;99.90;;;;;;4146464;28;20052;-78
2022/07/17 00:42:00;;;;;;;2.90;0.90;;;20.80;99.90;;;;;;4160805;28;20107;-78
2022/07/17 00:44:21;;;;;;;0.95;0.90;;;20.70;99.90;;;;;;4160931;28;20538;-78
2022/07/17 00:46:42;;;;;;;1.55;0.80;;;20.70;99.90;;;;;;4146175;28;20048;-78
2022/07/17 00:49:03;;;;;;;3.20;0.90;;;20.50;99.90;;;;;;4160757;28;20080;-78
2022/07/17 00:51:25;;;;;;;1.65;0.80;;;20.30;99.90;;;;;;4142415;28;20052;-78
2022/07/17 00:53:48;;;;;;;0.90;0.90;;;20.30;99.90;;;;;;4159882;28;20064;-78
2022/07/17 00:56:11;;;;;;;3.15;1.00;;;20.40;99.90;;;;;;4161155;28;20072;-78
2022/07/17 00:58:35;;;;;;;0.90;0.90;;;20.40;99.90;;;;;;4144519;28;20053;-78
2022/07/17 01:00:55;;;;;;;1.15;0.90;;;20.40;99.90;;;;;;4156214;28;20095;-78
2022/07/17 01:03:18;;;;;;;2.40;0.90;;;20.30;99.90;;;;;;4145740;28;20107;-78
2022/07/17 01:05:39;;;;;;;1.17;0.90;;;20.20;99.90;;;;;;4161113;28;20555;-78
2022/07/17 01:08:00;;;;;;;2.78;0.98;;;20.20;99.90;;;;;;4153610;28;20107;-78
2022/07/17 01:10:21;;;;;;;0.95;0.93;;;20.10;99.90;;;;;;4146134;28;20104;-78
2022/07/17 01:12:42;;;;;;;1.00;1.00;;;19.90;99.90;;;;;;4145861;28;20045;-78
2022/07/17 01:15:03;;;;;;;1.13;1.02;;;19.90;99.90;;;;;;4160634;28;20048;-78
2022/07/17 01:17:24;;;;;;;3.22;1.00;;;19.90;99.90;;;;;;4129328;28;20104;-78
2022/07/17 01:19:44;;;;;;;1.00;1.00;;;20.00;99.90;;;;;;4152415;28;20121;-78
2022/07/17 01:22:05;;;;;;;2.55;0.90;;;20.00;99.90;;;;;;4160603;28;20052;-78
2022/07/17 01:24:26;;;;;;;2.15;0.90;;;19.80;99.90;;;;;;4160666;28;20064;-78
2022/07/17 01:26:48;;;;;;;1.10;1.00;;;19.70;99.90;;;;;;4160622;28;20524;-78
2022/07/17 01:29:11;;;;;;;2.13;0.95;;;19.60;99.90;;;;;;4160189;28;20527;-78
2022/07/17 01:31:32;;;;;;;1.10;0.90;;;19.60;99.90;;;;;;4160558;28;20059;-78
2022/07/17 01:33:52;;;;;;;0.90;0.90;;;19.70;99.90;;;;;;4160442;28;20128;-78
2022/07/17 01:36:13;;;;;;;0.90;0.90;;;19.80;99.90;;;;;;4145668;28;20077;-78
2022/07/17 01:38:34;;;;;;;3.38;1.00;;;19.80;99.90;;;;;;4160258;28;20137;-78
2022/07/17 01:40:55;;;;;;;3.35;1.30;;;19.80;99.90;;;;;;4160541;28;20056;-78
2022/07/17 01:43:15;;;;;;;1.23;1.00;;;19.80;99.90;;;;;;4160257;28;20531;-78
2022/07/17 01:45:36;;;;;;;2.40;1.05;;;19.90;99.90;;;;;;4163713;28;20787;-78
2022/07/17 01:47:57;;;;;;;1.52;1.00;;;19.80;99.90;;;;;;4163420;28;20048;-78
2022/07/17 01:50:18;;;;;;;1.67;0.90;;;19.90;99.90;;;;;;4163592;28;20052;-78
2022/07/17 01:52:42;;;;;;;1.10;1.10;;;19.90;99.90;;;;;;4156011;28;20096;-78
2022/07/17 01:55:04;;;;;;;1.35;0.90;;;19.80;99.90;;;;;;4148840;28;20109;-78
2022/07/17 01:57:25;;;;;;;1.83;1.25;;;19.70;99.90;;;;;;4163780;28;20051;-78
2022/07/17 01:59:47;;;;;;;0.90;0.90;;;19.50;99.90;;;;;;4148845;28;20072;-78
2022/07/17 02:02:09;;;;;;;3.70;1.00;;;19.40;99.90;;;;;;4146979;28;20060;-78
2022/07/17 02:04:31;;;;;;;2.03;0.90;;;19.30;99.90;;;;;;4157351;28;20096;-78
2022/07/17 02:06:54;;;;;;;1.00;1.00;;;19.20;99.90;;;;;;4148627;28;20056;-78
2022/07/17 02:09:15;;;;;;;1.10;1.10;;;19.10;99.90;;;;;;4147014;28;20147;-78
2022/07/17 02:11:36;;;;;;;0.93;0.88;;;19.10;99.90;;;;;;4141056;28;20049;-78
2022/07/17 02:13:56;;;;;;;1.00;1.00;;;19.10;99.90;;;;;;4156070;28;20059;-78
2022/07/17 02:16:17;;;;;;;1.58;1.10;;;19.10;99.90;;;;;;4163325;28;20056;-78
2022/07/17 02:18:38;;;;;;;1.15;1.15;;;19.10;99.90;;;;;;4133510;28;20166;-78
2022/07/17 02:20:59;;;;;;;1.35;1.33;;;19.10;99.90;;;;;;4161472;28;20055;-78
2022/07/17 02:23:20;;;;;;;0.95;0.95;;;19.10;99.90;;;;;;4163100;28;20065;-78
2022/07/17 02:25:40;;;;;;;1.10;1.00;;;19.10;99.90;;;;;;4147939;28;20048;-78
2022/07/17 02:28:01;;;;;;;1.00;1.00;;;18.90;99.90;;;;;;4162941;28;20096;-78
2022/07/17 02:30:21;;;;;;;1.00;1.00;;;18.90;99.90;;;;;;4147660;28;20072;-78
2022/07/17 02:32:43;;;;;;;2.15;1.00;;;18.90;99.90;;;;;;4163357;28;20051;-78
2022/07/17 02:35:06;;;;;;;0.98;0.98;;;19.10;99.90;;;;;;4148143;28;20108;-78
2022/07/17 02:37:27;;;;;;;1.13;1.02;;;19.10;99.90;;;;;;4146766;28;20060;-78
2022/07/17 02:39:56;;;;;;;1.10;1.10;;;19.00;99.90;;;;;;4158059;28;20754;-78
2022/07/17 02:42:19;;;;;;;1.00;0.98;;;18.90;99.90;;;;;;4148100;28;20574;-78
2022/07/17 02:44:40;;;;;;;1.00;1.00;;;19.00;99.90;;;;;;4147934;28;20085;-78
2022/07/17 02:47:01;;;;;;;1.02;0.90;;;18.90;99.90;;;;;;4146923;28;20053;-78
2022/07/17 02:49:22;;;;;;;1.00;1.00;;;18.70;99.90;;;;;;4158743;28;20099;-78
2022/07/17 02:51:42;;;;;;;1.15;1.10;;;18.60;99.90;;;;;;4147661;28;20056;-78
2022/07/17 02:54:03;;;;;;;1.13;1.08;;;18.50;99.90;;;;;;4162938;28;20060;-78
2022/07/17 02:56:23;;;;;;;3.38;1.25;;;18.40;99.90;;;;;;4130813;28;20157;-78
2022/07/17 02:58:44;;;;;;;1.30;1.30;;;18.30;99.90;;;;;;4156472;28;20087;-78
2022/07/17 03:01:05;;;;;;;2.05;1.10;;;18.30;99.90;;;;;;4162129;28;20053;-78
2022/07/17 03:03:26;;;;;;;1.38;1.23;;;18.20;99.90;;;;;;4162653;28;20048;-78
2022/07/17 03:05:48;;;;;;;2.55;1.13;;;18.20;99.90;;;;;;4162566;28;20049;-78
2022/07/17 03:08:08;;;;;;;1.25;1.25;;;18.30;99.90;;;;;;4162618;28;20056;-78
2022/07/17 03:10:29;;;;;;;1.10;1.05;;;18.30;99.90;;;;;;4162408;28;20056;-78
2022/07/17 03:12:50;;;;;;;1.02;1.02;;;18.20;99.90;;;;;;4146242;28;20648;-78
2022/07/17 03:15:10;;;;;;;1.00;1.00;;;18.10;99.90;;;;;;4144970;28;20512;-78
2022/07/17 03:17:33;;;;;;;2.40;1.50;;;18.20;99.90;;;;;;4161934;28;20417;-78
2022/07/17 03:19:53;;;;;;;1.95;1.10;;;18.30;99.90;;;;;;4162293;28;20048;-78
2022/07/17 03:22:14;;;;;;;2.10;1.38;;;18.30;99.90;;;;;;4147172;28;20117;-78
2022/07/17 03:24:34;;;;;;;1.10;1.10;;;18.20;99.90;;;;;;4147408;28;20081;-78
2022/07/17 03:26:55;;;;;;;1.67;1.10;;;18.10;99.90;;;;;;4162158;28;20107;-78
2022/07/17 03:29:17;;;;;;;1.20;1.20;;;18.20;99.90;;;;;;4162166;28;20144;-78
2022/07/17 03:31:38;;;;;;;1.20;1.20;;;18.20;99.90;;;;;;4131037;28;20074;-78
2022/07/17 03:33:59;;;;;;;1.58;1.48;;;18.30;99.90;;;;;;4157516;28;20131;-78
2022/07/17 03:36:20;;;;;;;1.77;1.67;;;18.30;99.90;;;;;;4161886;28;20057;-78
2022/07/17 03:38:41;;;;;;;1.10;1.10;;;18.30;99.90;;;;;;4161859;28;20095;-78
2022/07/17 03:41:01;;;;;;;1.38;1.38;;;18.30;99.90;;;;;;4145659;28;20069;-78
2022/07/17 03:43:22;;;;;;;1.13;1.13;;;18.40;99.90;;;;;;4155643;28;20910;-78
2022/07/17 03:45:43;;;;;;;1.10;1.10;;;18.40;99.90;;;;;;4161815;28;20079;-78
2022/07/17 03:48:03;;;;;;;1.23;1.20;;;18.20;99.90;;;;;;4147184;28;20104;-78
2022/07/17 03:50:24;;;;;;;1.15;1.15;;;18.20;99.90;;;;;;4146870;28;20194;-78
2022/07/17 03:52:45;;;;;;;2.47;1.20;;;18.10;99.90;;;;;;4146678;28;20088;-78
2022/07/17 03:55:06;;;;;;;1.50;1.13;;;18.20;99.90;;;;;;4161737;28;20061;-78
2022/07/17 03:57:27;;;;;;;1.10;1.10;;;18.10;99.90;;;;;;4162052;28;20068;-78
2022/07/17 03:59:47;;;;;;;1.80;1.70;;;18.10;99.90;;;;;;4161550;28;20129;-78
2022/07/17 04:02:08;;;;;;;1.35;1.20;;;18.00;99.90;;;;;;4161257;28;20088;-78
2022/07/17 04:04:28;;;;;;;2.50;1.35;;;17.90;99.90;;;;;;4161654;28;20084;-78
2022/07/17 04:06:49;;;;;;;4.00;1.20;;;18.00;99.90;;;;;;4130306;28;20190;-78
2022/07/17 04:09:09;;;;;;;1.48;1.48;;;17.90;99.90;;;;;;4143786;28;20057;-78
2022/07/17 04:11:30;;;;;;;2.17;1.60;;;17.80;99.90;;;;;;4153198;28;20124;-78
2022/07/17 04:13:51;;;;;;;2.50;1.55;;;17.90;99.90;;;;;;4161560;28;20130;-78
2022/07/17 04:16:11;;;;;;;1.45;1.45;;;17.90;99.90;;;;;;4145382;28;20144;-78
2022/07/17 04:18:34;;;;;;;1.13;1.10;;;18.00;99.90;;;;;;4144070;28;20060;-78
2022/07/17 04:20:56;;;;;;;;;;;18.00;99.90;;;;;;4161772;28;20048;-78
2022/07/17 04:23:17;;;;;;;3.22;1.50;;;18.00;99.90;;;;;;4146535;28;19936;-78
2022/07/17 04:25:38;;;;;;;1.13;1.13;;;17.90;99.90;;;;;;4144918;28;20129;-78
2022/07/17 04:27:58;;;;;;;1.95;1.85;;;17.90;99.90;;;;;;4154832;28;20119;-78
2022/07/17 04:30:19;;;;;;;1.75;1.30;;;17.80;99.90;;;;;;4146461;28;20066;-78
2022/07/17 04:32:40;;;;;;;1.42;1.42;;;17.80;99.90;;;;;;4160464;28;20056;-78
2022/07/17 04:35:01;;;;;;;1.63;1.52;;;17.80;99.90;;;;;;4154873;28;20060;-78
2022/07/17 04:37:21;;;;;;;2.75;1.20;;;17.60;99.90;;;;;;4161010;28;20060;-78
2022/07/17 04:39:42;;;;;;;3.33;1.15;;;17.60;99.90;;;;;;4161011;28;20052;-78
2022/07/17 04:42:03;;;;;;;2.97;1.38;;;17.80;99.90;;;;;;4160587;28;20080;-78
2022/07/17 04:44:24;;;;;;;3.70;1.60;;;17.90;99.90;;;;;;4146345;28;20129;-78
2022/07/17 04:46:45;;;;;;;2.60;1.60;;;17.80;99.90;;;;;;4161193;28;20048;-78
2022/07/17 04:49:06;;;;;;;1.77;1.67;;;17.70;99.90;;;;;;4161019;28;20126;-78
2022/07/17 04:51:27;;;;;;;1.23;1.23;;;17.70;99.90;;;;;;4161092;28;20072;-79
2022/07/17 04:53:48;;;;;;;2.10;2.05;;;17.70;99.90;;;;;;4146565;28;20052;-79
2022/07/17 04:56:09;;;;;;;6.88;1.88;;;17.60;99.90;;;;;;4160977;28;20103;-79
2022/07/17 04:58:30;;;;;;;2.10;1.90;;;17.60;99.90;;;;;;4161233;28;20236;-80
2022/07/17 05:00:50;;;;;;;2.83;1.77;;;17.60;99.90;;;;;;4160776;28;20055;-79
2022/07/17 05:03:11;;;;;;;1.77;1.75;;;17.60;99.90;;;;;;4161113;28;20095;-79
2022/07/17 05:05:32;;;;;;;1.55;1.23;;;17.60;99.90;;;;;;4161037;28;20108;-79
2022/07/17 05:07:53;;;;;;;2.15;1.60;;;17.70;99.90;;;;;;4160638;28;20044;-79
2022/07/17 05:10:14;;;;;;;1.67;1.58;;;17.70;99.90;;;;;;4145901;28;20089;-79
2022/07/17 05:12:35;;;;;;;1.67;1.58;;;17.90;99.90;;;;;;4160479;28;20644;-79
2022/07/17 05:14:56;;;;;;;1.58;1.58;;;17.90;99.90;;;;;;4146054;28;20140;-79
2022/07/17 05:17:16;;;;;;;2.17;1.52;;;18.00;99.90;;;;;;4141799;28;20053;-79
2022/07/17 05:19:37;;;;;;;1.73;1.30;;;18.00;99.90;;;;;;4129494;28;20449;-79
2022/07/17 05:21:59;;;;;;;2.47;1.10;;;18.10;99.90;;;;;;4129731;28;20065;-79
2022/07/17 05:24:20;;;;;;;1.30;1.10;;;18.10;99.90;;;;;;4129594;28;20093;-79
2022/07/17 05:26:41;;;;;;;1.95;1.33;;;18.10;99.90;;;;;;4155308;28;20141;-79
2022/07/17 05:29:02;;;;;;;2.05;1.10;;;18.20;99.90;;;;;;4142462;28;20060;-79
2022/07/17 05:31:22;;;;;;;1.20;1.20;;;18.30;99.90;;;;;;4143765;28;20655;-79
2022/07/17 05:33:44;;;;;;;1.30;1.30;;;18.40;99.90;;;;;;4154183;28;20060;-79
2022/07/17 05:36:04;;;;;;;3.15;1.17;;;18.40;99.90;;;;;;4133684;28;20060;-79
2022/07/17 05:38:25;;;;;;;1.40;1.30;;;18.50;99.90;;;;;;4159519;28;20099;-79
2022/07/17 05:40:46;;;;;;;1.30;1.30;;;18.50;99.90;;;;;;4160303;28;20502;-79
2022/07/17 05:43:06;;;;;;;4.38;1.20;;;18.60;99.90;;;;;;4160096;28;20061;-79
2022/07/17 05:45:27;;;;;;;2.13;1.60;;;18.70;99.90;;;;;;4160279;28;20065;-79
2022/07/17 05:47:47;;;;;;;2.25;1.40;;;18.80;99.90;;;;;;4153421;28;20081;-79
2022/07/17 05:50:08;;;;;;;1.85;1.35;;;18.80;99.90;;;;;;4156689;28;20107;-79
2022/07/17 05:52:29;;;;;;;1.48;1.48;;;18.90;99.90;;;;;;4154171;28;20048;-79
2022/07/17 05:54:50;;;;;;;1.73;1.20;;;18.90;99.90;;;;;;4145642;28;20509;-79
2022/07/17 05:57:10;;;;;;;1.45;1.35;;;19.00;99.90;;;;;;4146869;28;20088;-79
2022/07/17 05:59:31;;;;;;;1.33;1.10;;;19.20;99.90;;;;;;4140171;28;20446;-79
2022/07/17 06:01:52;;;;;;;1.00;1.00;;;19.40;99.90;;;;;;4148058;28;20048;-78
2022/07/17 06:04:13;;;;;;;2.15;1.05;;;19.50;99.90;;;;;;4149646;28;20060;-79
2022/07/17 06:06:33;;;;;;;1.10;1.10;;;19.80;99.90;;;;;;4151102;28;20052;-79
2022/07/17 06:08:54;;;;;;;1.00;1.00;;;20.00;99.90;;;;;;4142951;28;20489;-79
2022/07/17 06:11:14;;;;;;;1.25;1.25;;;20.20;99.90;;;;;;4133881;28;20125;-79
2022/07/17 06:13:35;;;;;;;1.20;1.20;;;20.20;99.90;;;;;;4145125;28;20104;-79
2022/07/17 06:15:58;;;;;;;0.90;0.90;;;20.30;99.90;;;;;;4160358;28;20100;-79
2022/07/17 06:18:19;;;;;;;1.23;1.10;;;20.40;99.90;;;;;;4137558;28;20096;-79
2022/07/17 06:20:40;;;;;;;1.30;1.30;;;20.60;99.90;;;;;;4158764;28;20123;-79
2022/07/17 06:23:00;;;;;;;2.25;1.05;;;20.80;99.90;;;;;;4159845;28;20068;-79
2022/07/17 06:25:21;;;;;;;0.90;0.90;;;20.90;99.90;;;;;;4160295;28;20049;-80
2022/07/17 06:27:42;;;;;;;0.90;0.90;;;21.00;99.90;;;;;;4159938;28;20048;-79
2022/07/17 06:30:03;;;;;;;2.25;1.13;;;21.10;99.90;;;;;;4160536;28;20088;-80
2022/07/17 06:32:24;;;;;;;2.08;1.00;;;21.20;99.90;;;;;;4146228;28;20068;-80
2022/07/17 06:34:44;;;;;;;1.50;0.90;;;21.40;99.90;;;;;;4161454;28;20124;-79
2022/07/17 06:37:05;;;;;;;1.45;1.35;;;21.50;99.90;;;;;;4162595;28;20084;-79
2022/07/17 06:39:26;;;;;;;1.08;1.08;;;21.70;99.90;;;;;;4158658;28;20544;-86
2022/07/17 06:41:47;;;;;;;0.93;0.80;;;22.00;99.90;;;;;;4142603;28;20137;-78
2022/07/17 06:44:07;;;;;;;0.85;0.85;;;22.90;99.90;;;;;;4156031;28;20053;-78
2022/07/17 06:46:27;;;;;;;0.80;0.80;;;23.40;99.90;;;;;;4150438;28;20135;-78
2022/07/17 06:48:51;;;;;;;1.88;0.80;;;23.90;99.90;;;;;;4160742;28;20073;-78
2022/07/17 06:51:11;;;;;;;0.80;0.80;;;24.20;99.90;;;;;;4136539;28;20080;-78
2022/07/17 06:53:32;;;;;;;0.80;0.80;;;24.40;99.90;;;;;;4161641;28;20079;-78
2022/07/17 06:55:53;;;;;;;1.38;0.80;;;24.80;99.90;;;;;;4148294;28;20108;-78
2022/07/17 06:58:14;;;;;;;0.70;0.70;;;25.10;99.90;;;;;;4163100;28;20660;-78
2022/07/17 07:00:35;;;;;;;0.80;0.80;;;25.50;99.90;;;;;;4147833;28;20057;-78
2022/07/17 07:02:55;;;;;;;0.75;0.75;;;25.60;99.90;;;;;;4147800;28;20053;-78
2022/07/17 07:05:16;;;;;;;1.38;0.70;;;26.00;99.90;;;;;;4162588;28;20136;-78
2022/07/17 07:07:37;;;;;;;0.70;0.70;;;26.20;99.90;;;;;;4162385;28;20137;-78
2022/07/17 07:09:57;;;;;;;0.82;0.68;;;26.50;99.90;;;;;;4173177;28;20515;-78
2022/07/17 07:12:18;;;;;;;0.70;0.70;;;26.50;99.00;;;;;;4148281;28;20489;-78
2022/07/17 07:14:39;;;;;;;0.80;0.80;;;26.90;98.10;;;;;;4146149;28;20099;-78
2022/07/17 07:17:00;;;;;;;1.23;0.70;;;27.10;97.10;;;;;;4147359;28;20077;-78
2022/07/17 07:19:20;;;;;;;0.70;0.70;;;27.50;97.20;;;;;;4162694;28;20072;-78
2022/07/17 07:21:41;;;;;;;0.70;0.70;;;27.70;96.60;;;;;;4147643;28;20057;-78
2022/07/17 07:24:03;;;;;;;0.70;0.70;;;28.00;96.90;;;;;;4147284;28;20107;-78
2022/07/17 07:26:24;;;;;;;0.70;0.70;;;28.30;97.20;;;;;;4131417;28;20057;-78
2022/07/17 07:28:44;;;;;;;1.38;0.60;;;28.40;96.20;;;;;;4155982;28;20048;-78
2022/07/17 07:31:05;;;;;;;0.60;0.60;;;28.60;94.80;;;;;;4158649;28;20500;-78
2022/07/17 07:33:26;;;;;;;0.70;0.70;;;28.80;95.90;;;;;;4156810;28;20060;-78
2022/07/17 07:35:46;;;;;;;5.57;0.60;;;29.00;95.00;;;;;;4147289;28;20060;-78
2022/07/17 07:38:07;;;;;;;0.60;0.60;;;29.20;94.30;;;;;;4161921;28;20091;-78
2022/07/17 07:40:28;;;;;;;0.60;0.60;;;29.20;93.40;;;;;;4147047;28;20053;-78
2022/07/17 07:42:49;;;;;;;2.67;0.57;;;29.10;93.00;;;;;;4162026;28;20044;-78
2022/07/17 07:45:10;;;;;;;0.60;0.60;;;29.20;93.70;;;;;;4161918;28;20053;-78
2022/07/17 07:47:30;;;;;;;0.93;0.60;;;29.50;93.20;;;;;;4161972;28;20523;-79
2022/07/17 07:49:51;;;;;;;1.35;0.60;;;29.70;93.80;;;;;;4161610;28;20076;-79
2022/07/17 07:52:12;;;;;;;0.50;0.50;;;29.70;93.20;;;;;;4162124;28;20051;-79
2022/07/17 07:54:33;;;;;;;1.67;0.60;;;29.90;93.10;;;;;;4162048;28;20076;-78
2022/07/17 07:56:54;;;;;;;0.60;0.60;;;30.10;92.20;;;;;;4162155;28;20095;-78
2022/07/17 07:59:14;;;;;;;9.60;0.60;;;30.40;91.40;;;;;;4161751;28;20099;-78
2022/07/17 08:01:35;;;;;;;0.50;0.50;;;30.50;91.50;;;;;;4130612;28;20089;-79
2022/07/17 08:03:56;;;;;;;1.48;0.60;;;30.60;92.60;;;;;;4141814;28;20086;-79
2022/07/17 08:06:16;;;;;;;0.75;0.50;;;30.50;92.20;;;;;;4146584;28;20120;-79
2022/07/17 08:08:37;;;;;;;3.55;0.50;;;31.00;92.00;;;;;;4161631;28;20061;-79
2022/07/17 08:10:59;;;;;;;3.22;0.50;;;31.00;92.00;;;;;;4150508;28;20112;-79
2022/07/17 08:13:20;;;;;;;0.50;0.50;;;31.20;91.00;;;;;;4168057;28;20169;-79
2022/07/17 08:15:41;;;;;;;0.60;0.60;;;31.20;91.70;;;;;;4161807;28;20205;-79
2022/07/17 08:18:01;;;;;;;1.55;0.60;;;31.40;91.20;;;;;;4161473;28;20468;-79
2022/07/17 08:20:23;;;;;;;0.68;0.68;;;31.40;91.80;;;;;;4146326;28;20053;-79
2022/07/17 08:22:45;;;;;;;4.03;0.70;;;31.80;91.40;;;;;;4146189;28;20048;-79
2022/07/17 08:25:24;;;;;;;1.13;0.50;;;32.00;90.40;;;;;;4161158;28;20048;-79
2022/07/17 08:27:45;;;;;;;2.25;0.60;;;32.00;87.40;;;;;;4161073;28;20056;-79
2022/07/17 08:30:07;;;;;;;0.50;0.50;;;32.30;90.10;;;;;;4146629;28;20556;-79
2022/07/17 08:32:28;;;;;;;1.95;0.50;;;32.20;89.70;;;;;;4160868;28;20060;-79
2022/07/17 08:34:48;;;;;;;1.60;0.45;;;32.60;88.90;;;;;;4146119;28;20053;-79
2022/07/17 08:37:09;;;;;;;0.73;0.50;;;32.70;86.30;;;;;;4146386;28;20536;-79
2022/07/17 08:39:30;;;;;;;0.50;0.50;;;33.10;89.00;;;;;;4146417;28;20452;-79
2022/07/17 08:41:51;;;;;;;0.50;0.50;;;33.30;86.70;;;;;;4160851;28;20115;-79
2022/07/17 08:44:12;;;;;;;0.40;0.40;;;33.30;86.30;;;;;;4146371;28;20076;-79
2022/07/17 08:46:36;;;;;;;1.20;0.50;;;33.70;85.00;;;;;;4146194;28;20770;-79
2022/07/17 08:48:59;;;;;;;1.23;0.50;;;34.00;85.40;;;;;;4160789;28;20225;-79
2022/07/17 08:51:19;;;;;;;1.15;0.40;;;34.10;85.70;;;;;;4145424;28;20093;-79
2022/07/17 08:53:42;;;;;;;0.82;0.50;;;34.10;82.90;;;;;;4145978;28;20104;-79
2022/07/17 08:56:03;;;;;;;0.50;0.50;;;34.30;85.30;;;;;;4146247;28;20488;-79
2022/07/17 08:58:24;;;;;;;;;;;34.20;84.90;;;;;;4146512;28;20160;-79
2022/07/17 09:00:45;;;;;;;1.65;0.50;;;34.20;82.50;;;;;;4153915;28;20675;-79
2022/07/17 09:03:07;;;;;;;0.95;0.40;;;34.40;82.50;;;;;;4143476;28;20052;-79
2022/07/17 09:05:33;;;;;;;0.50;0.50;;;34.70;85.20;;;;;;4152149;28;20115;-79
2022/07/17 09:07:54;;;;;;;0.57;0.40;;;35.10;84.00;;;;;;4158957;28;20099;-79
2022/07/17 09:10:15;;;;;;;0.40;0.40;;;34.30;83.40;;;;;;4156354;28;20111;-79
2022/07/17 09:12:36;;;;;;;0.40;0.40;;;34.10;82.80;;;;;;4161100;28;20049;-79
2022/07/17 09:14:57;;;;;;;0.43;0.43;;;34.20;84.40;;;;;;4129632;28;20104;-80
2022/07/17 09:17:18;;;;;;;0.40;0.40;;;33.70;84.80;;;;;;4154985;28;20110;-79
2022/07/17 09:19:45;;;;;;;0.40;0.40;;;33.80;83.20;;;;;;4140292;28;20048;-79
2022/07/17 09:22:12;;;;;;;0.40;0.40;;;34.10;85.20;;;;;;4160947;28;20051;-79
2022/07/17 09:24:48;;;;;;;0.40;0.40;;;34.30;81.20;;;;;;4159000;28;20061;-79
2022/07/17 09:27:10;;;;;;;0.93;0.40;;;34.50;80.20;;;;;;4158730;28;20104;-79
2022/07/17 09:29:30;;;;;;;2.78;0.50;;;34.30;83.50;;;;;;4148363;28;20440;-79
2022/07/17 09:31:52;;;;;;;0.30;0.30;;;34.50;82.60;;;;;;4135868;28;20052;-79
2022/07/17 09:34:17;;;;;;;;;;;34.70;81.90;;;;;;4158013;28;20073;-79
2022/07/17 09:36:37;;;;;;;1.02;0.88;;;34.70;80.80;;;;;;4160355;28;19928;-79
2022/07/17 09:38:58;;;;;;;0.45;0.45;;;35.00;82.90;;;;;;4149460;28;20420;-79
2022/07/17 09:41:21;;;;;;;0.40;0.40;;;34.80;81.00;;;;;;4144565;28;20056;-80
2022/07/17 09:43:52;;;;;;;0.68;0.40;;;34.50;80.50;;;;;;4152574;28;20633;-80
2022/07/17 09:46:16;;;;;;;;;;;34.50;79.80;;;;;;4161965;28;20095;-80
2022/07/17 09:48:42;;;;;;;0.93;0.50;;;35.10;79.70;;;;;;4140890;28;19985;-80
2022/07/17 09:51:03;;;;;;;3.95;3.75;;;35.10;78.20;;;;;;4158664;28;20055;-79
2022/07/17 09:53:24;;;;;;;0.32;0.32;;;35.10;80.70;;;;;;4158790;28;20064;-79
2022/07/17 09:55:45;;;;;;;0.40;0.40;;;35.10;81.10;;;;;;4163733;28;20061;-79
2022/07/17 09:58:11;;;;;;;0.30;0.30;;;35.30;80.70;;;;;;4142735;28;20051;-79
2022/07/17 10:00:35;;;;;;;0.55;0.40;;;35.20;77.80;;;;;;4159784;28;20076;-79
2022/07/17 10:02:56;;;;;;;1.17;0.40;;;35.30;79.60;;;;;;4160252;28;20072;-79
2022/07/17 10:05:17;;;;;;;;;;;35.10;78.40;;;;;;4159828;28;20123;-79
2022/07/17 10:07:42;;;;;;;0.40;0.40;;;35.40;78.90;;;;;;4163391;28;19927;-79
2022/07/17 10:10:03;;;;;;;2.25;0.40;;;35.20;78.00;;;;;;4162516;28;20047;-79
2022/07/17 10:12:23;;;;;;;1.33;0.40;;;35.10;78.50;;;;;;4163212;28;20059;-80
2022/07/17 10:14:47;;;;;;;2.33;0.40;;;35.30;79.60;;;;;;4167835;28;20129;-80
2022/07/17 10:17:09;;;;;;;0.98;0.40;;;35.10;75.70;;;;;;4146866;28;20044;-80
2022/07/17 10:19:32;;;;;;;0.40;0.40;;;35.30;79.10;;;;;;4170464;28;20083;-80
2022/07/17 10:21:59;;;;;;;0.85;0.40;;;35.10;78.50;;;;;;4146806;28;20064;-80
2022/07/17 10:24:20;;;;;;;0.77;0.30;;;35.10;78.90;;;;;;4153412;28;20100;-80
2022/07/17 10:26:48;;;;;;;0.40;0.40;;;35.20;77.00;;;;;;4163076;28;20393;-80
2022/07/17 10:29:39;;;;;;;2.65;0.50;;;35.20;76.40;;;;;;4157948;28;20147;-80
2022/07/17 10:32:13;;;;;;;1.42;0.75;;;35.60;77.30;;;;;;4153035;28;20060;-80
2022/07/17 10:34:42;;;;;;;0.95;0.60;;;36.10;78.00;;;;;;4142670;28;20060;-80
2022/07/17 10:37:13;;;;;;;0.30;0.30;;;36.10;77.90;;;;;;4160024;28;20045;-84
2022/07/17 10:39:33;;;;;;;1.65;0.40;;;35.50;74.50;;;;;;4145057;28;20081;-82
2022/07/17 10:41:59;;;;;;;0.40;0.40;;;35.40;76.40;;;;;;4161557;28;20051;-83
2022/07/17 10:44:34;;;;;;;0.40;0.40;;;35.50;76.40;;;;;;4160393;28;20091;-83
2022/07/17 10:46:56;;;;;;;1.35;0.43;;;35.70;79.10;;;;;;4162704;28;20512;-83
2022/07/17 10:49:16;;;;;;;0.50;0.50;;;35.90;75.70;;;;;;4160433;28;20049;-83
2022/07/17 10:51:39;;;;;;;0.30;0.30;;;36.10;77.60;;;;;;4162771;28;20112;-82
2022/07/17 10:54:00;;;;;;;0.40;0.40;;;35.60;77.50;;;;;;4156513;28;20087;-84
2022/07/17 10:56:21;;;;;;;1.27;0.85;;;35.70;79.60;;;;;;4156381;28;20048;-82
2022/07/17 10:58:44;;;;;;;1.27;0.30;;;35.70;77.00;;;;;;4145212;28;20045;-82
2022/07/17 11:01:12;;;;;;;1.20;0.40;;;35.70;75.30;;;;;;4160679;28;20084;-82
2022/07/17 11:03:54;;;;;;;0.50;0.50;;;36.00;76.60;;;;;;4146582;28;20061;-82
2022/07/17 11:06:27;;;;;;;0.50;0.50;;;35.50;75.20;;;;;;4161099;28;20091;-83
2022/07/17 11:08:58;;;;;;;0.70;0.47;;;35.80;75.00;;;;;;4162683;28;20125;-82
2022/07/17 11:11:22;;;;;;;0.35;0.35;;;35.80;76.00;;;;;;4163623;28;20398;-82
2022/07/17 11:13:50;;;;;;;0.40;0.40;;;36.10;76.20;;;;;;4145036;28;20056;-82
2022/07/17 11:16:10;;;;;;;0.40;0.40;;;36.00;77.10;;;;;;4160728;28;20060;-82
2022/07/17 11:18:31;;;;;;;0.55;0.40;;;36.20;75.80;;;;;;4147070;28;20616;-82
2022/07/17 11:20:57;;;;;;;0.65;0.40;;;36.00;74.30;;;;;;4161872;28;20104;-81
2022/07/17 11:23:20;;;;;;;0.38;0.38;;;36.00;76.10;;;;;;4151169;28;20156;-82
2022/07/17 11:25:59;;;;;;;2.42;0.40;;;36.20;75.80;;;;;;4159027;28;20133;-82
2022/07/17 11:28:34;;;;;;;0.40;0.40;;;36.10;76.30;;;;;;4162235;28;20534;-82
2022/07/17 11:30:55;;;;;;;1.88;0.40;;;36.40;75.70;;;;;;4158442;28;20061;-82
2022/07/17 11:33:15;;;;;;;0.88;0.40;;;36.60;75.50;;;;;;4160369;28;20137;-82
2022/07/17 11:35:37;;;;;;;2.13;0.38;;;36.90;75.30;;;;;;4146406;28;20108;-82
2022/07/17 11:38:02;;;;;;;0.40;0.40;;;36.70;76.20;;;;;;4151201;28;20060;-82
2022/07/17 11:40:22;;;;;;;0.40;0.40;;;36.90;76.00;;;;;;4152351;28;20043;-82
2022/07/17 11:42:44;;;;;;;0.40;0.40;;;36.60;74.50;;;;;;4162138;28;20051;-82
2022/07/17 11:45:05;;;;;;;3.65;0.80;;;36.40;73.80;;;;;;4131152;28;20106;-82
2022/07/17 11:47:27;;;;;;;1.48;0.40;;;36.20;73.60;;;;;;4151747;28;20128;-82
2022/07/17 11:49:48;;;;;;;0.30;0.30;;;36.30;73.40;;;;;;4147002;28;20092;-82
2022/07/17 11:52:15;;;;;;;0.40;0.40;;;36.50;73.90;;;;;;4162334;28;20060;-82
2022/07/17 11:54:51;;;;;;;0.40;0.40;;;36.40;75.60;;;;;;4130743;28;20109;-82
2022/07/17 11:57:13;;;;;;;0.40;0.40;;;36.10;75.30;;;;;;4159735;28;20052;-82
2022/07/17 11:59:34;;;;;;;2.05;0.40;;;36.40;76.20;;;;;;4157343;28;20048;-82
2022/07/17 12:01:55;;;;;;;1.15;0.40;;;36.50;76.20;;;;;;4133143;28;20057;-82
2022/07/17 12:04:15;;;;;;;1.45;0.57;;;36.30;75.50;;;;;;4145769;28;20097;-82
2022/07/17 12:06:37;;;;;;;0.40;0.40;;;36.50;74.00;;;;;;4158684;28;20107;-82
2022/07/17 12:08:58;;;;;;;0.40;0.40;;;36.40;74.60;;;;;;4146695;28;20077;-82
2022/07/17 12:11:19;;;;;;;0.30;0.30;;;36.70;73.50;;;;;;4144135;28;20105;-82
2022/07/17 12:13:46;;;;;;;3.05;0.40;;;36.60;71.60;;;;;;4155156;28;20080;-82
2022/07/17 12:16:19;;;;;;;0.55;0.40;;;36.40;72.50;;;;;;4141185;28;20061;-82
2022/07/17 12:18:40;;;;;;;4.57;0.40;;;36.40;75.50;;;;;;4153657;28;20060;-82
2022/07/17 12:21:05;;;;;;;0.60;0.40;;;36.50;72.90;;;;;;4155961;28;20064;-82